Terminal Aerodrome Forecast
Issued by NWS Wilmington, NC

Home | Current Version | Previous Version | Text Only | Print | Product List | Glossary On
Versions: 1 2 3 4 5 6 7 8 9 10 11 12 13 14
985
FTUS42 KILM 032328 CCA
TAFLBT
TAF COR
KLBT 032328Z 0400/0424 04003KT P6SM BKN120
     FM041300 06006KT P6SM OVC090
     FM041700 07007KT P6SM -RA OVC060=

USA.gov is the U.S. government's official web portal to all federal, state and local government web resources and services.